Time;durP1;ratioP1;P1;durP2;ratioP2;P2;SDS_P1;SDS_P2;PMS_P1;PMS_P2;Temp;Humidity;BMP_temperature;BMP_pressure;BME280_temperature;BME280_humidity;BME280_pressure;Samples;Min_cycle;Max_cycle;Signal;HPM_P1;HPM_P2
2022/05/29 00:01:22;;;;;;;5.73;2.70;;;;;;;;;;5000363;28;20235;-71
2022/05/29 00:03:50;;;;;;;8.87;2.97;;;;;;;;;;5002031;28;20278;-71
2022/05/29 00:06:17;;;;;;;4.43;2.37;;;;;;;;;;5001131;28;20714;-71
2022/05/29 00:08:43;;;;;;;5.30;2.40;;;;;;;;;;5001885;28;20242;-71
2022/05/29 00:11:12;;;;;;;8.87;2.90;;;;;;;;;;4982865;28;20226;-70
2022/05/29 00:13:40;;;;;;;6.53;2.47;;;;;;;;;;4995635;28;20319;-71
2022/05/29 00:16:06;;;;;;;5.57;2.50;;;;;;;;;;5000319;28;20223;-71
2022/05/29 00:18:51;;;;;;;3.57;2.30;;;;;;;;;;5000580;28;20961;-71
2022/05/29 00:21:17;;;;;;;9.20;2.80;;;;;;;;;;5000210;28;20230;-71
2022/05/29 00:23:45;;;;;;;5.10;2.40;;;;;;;;;;5002314;28;20235;-70
2022/05/29 00:26:11;;;;;;;7.90;2.57;;;;;;;;;;5000156;28;20247;-71
2022/05/29 00:28:39;;;;;;;3.23;2.27;;;;;;;;;;5002409;28;20239;-71
2022/05/29 00:31:06;;;;;;;5.43;2.57;;;;;;;;;;4998982;28;20354;-70
2022/05/29 00:33:32;;;;;;;4.37;2.40;;;;;;;;;;5002078;28;20226;-71
2022/05/29 00:35:59;;;;;;;4.40;2.03;;;;;;;;;;5000256;28;20231;-70
2022/05/29 00:38:27;;;;;;;3.23;2.50;;;;;;;;;;5001707;28;20223;-71
2022/05/29 00:41:17;;;;;;;2.47;2.20;;;;;;;;;;4998564;28;20226;-71
2022/05/29 00:44:17;;;;;;;6.00;2.80;;;;;;;;;;4967957;28;20239;-70
2022/05/29 00:46:48;;;;;;;3.00;2.10;;;;;;;;;;4931417;28;20223;-70
2022/05/29 00:49:15;;;;;;;4.23;2.70;;;;;;;;;;4978702;28;20282;-71
2022/05/29 00:51:43;;;;;;;6.10;2.73;;;;;;;;;;4982509;28;20638;-71
2022/05/29 00:54:10;;;;;;;5.63;2.43;;;;;;;;;;4980758;28;20231;-71
2022/05/29 00:56:37;;;;;;;7.00;2.87;;;;;;;;;;4982311;28;20251;-71
2022/05/29 00:59:04;;;;;;;5.07;2.33;;;;;;;;;;4979104;28;20310;-71
2022/05/29 01:01:31;;;;;;;6.90;2.90;;;;;;;;;;4980211;28;20253;-71
2022/05/29 01:03:57;;;;;;;6.97;3.63;;;;;;;;;;4980407;28;20651;-71
2022/05/29 01:06:24;;;;;;;4.57;2.60;;;;;;;;;;4981060;28;20224;-71
2022/05/29 01:08:51;;;;;;;4.67;2.83;;;;;;;;;;4980087;28;20301;-71
2022/05/29 01:11:21;;;;;;;6.47;3.03;;;;;;;;;;4983973;28;21632;-71
2022/05/29 01:14:03;;;;;;;4.73;2.80;;;;;;;;;;4999367;28;20222;-70
2022/05/29 01:16:39;;;;;;;5.67;2.67;;;;;;;;;;4982135;28;20231;-70
2022/05/29 01:19:12;;;;;;;5.73;3.03;;;;;;;;;;4999812;28;20269;-71
2022/05/29 01:21:41;;;;;;;3.07;2.40;;;;;;;;;;4999518;28;20227;-71
2022/05/29 01:24:14;;;;;;;3.30;2.77;;;;;;;;;;4991464;28;20219;-71
2022/05/29 01:26:59;;;;;;;6.57;3.13;;;;;;;;;;4998491;28;20313;-71
2022/05/29 01:29:38;;;;;;;4.53;2.60;;;;;;;;;;4999623;28;20227;-71
2022/05/29 01:32:15;;;;;;;4.80;2.87;;;;;;;;;;4998765;28;20301;-72
2022/05/29 01:34:44;;;;;;;4.47;2.83;;;;;;;;;;4981678;28;20593;-71
2022/05/29 01:37:11;;;;;;;3.10;2.60;;;;;;;;;;4998540;28;20703;-72
2022/05/29 01:39:41;;;;;;;3.87;2.43;;;;;;;;;;4996639;28;20579;-71
2022/05/29 01:42:28;;;;;;;3.10;2.13;;;;;;;;;;4974930;28;20227;-72
2022/05/29 01:44:54;;;;;;;2.87;1.90;;;;;;;;;;4999157;28;20373;-71
2022/05/29 01:47:23;;;;;;;4.23;2.20;;;;;;;;;;4998338;28;20239;-71
2022/05/29 01:49:50;;;;;;;3.27;2.30;;;;;;;;;;4999476;28;20231;-72
2022/05/29 01:52:19;;;;;;;4.63;2.23;;;;;;;;;;4983003;28;20689;-71
2022/05/29 01:55:04;;;;;;;4.53;2.60;;;;;;;;;;4981906;28;20230;-71
2022/05/29 01:57:35;;;;;;;5.17;2.20;;;;;;;;;;4990373;28;20327;-71
2022/05/29 02:00:05;;;;;;;5.13;2.00;;;;;;;;;;4995405;28;20318;-71
2022/05/29 02:02:34;;;;;;;3.73;2.00;;;;;;;;;;4981432;28;20234;-71
2022/05/29 02:05:01;;;;;;;3.33;1.80;;;;;;;;;;4983118;28;20363;-71
2022/05/29 02:10:30;;;;;;;4.10;2.13;;;;;;;;;;4999127;28;20230;-71
2022/05/29 02:12:57;;;;;;;4.73;2.20;;;;;;;;;;4997669;28;20316;-71
2022/05/29 02:15:38;;;;;;;3.03;1.97;;;;;;;;;;5000020;28;20231;-71
2022/05/29 02:18:06;;;;;;;3.50;1.83;;;;;;;;;;4977887;28;20235;-71
2022/05/29 02:20:51;;;;;;;4.47;2.20;;;;;;;;;;4996825;28;20224;-71
2022/05/29 02:23:23;;;;;;;4.33;2.20;;;;;;;;;;4954838;28;20702;-71
2022/05/29 02:25:50;;;;;;;3.57;2.63;;;;;;;;;;4974617;28;20232;-71
2022/05/29 02:28:19;;;;;;;2.07;1.87;;;;;;;;;;4968182;28;20228;-71
2022/05/29 02:31:08;;;;;;;3.37;2.40;;;;;;;;;;4998123;28;20234;-72
2022/05/29 02:33:56;;;;;;;5.47;2.33;;;;;;;;;;4997933;28;20227;-71
2022/05/29 02:36:46;;;;;;;4.43;2.50;;;;;;;;;;4982946;28;20231;-70
2022/05/29 02:39:36;;;;;;;5.63;2.50;;;;;;;;;;4996632;28;20274;-72
2022/05/29 02:42:06;;;;;;;3.03;2.40;;;;;;;;;;4959660;28;20622;-71
2022/05/29 02:44:44;;;;;;;2.67;2.27;;;;;;;;;;4975342;28;20227;-71
2022/05/29 02:47:13;;;;;;;3.90;2.40;;;;;;;;;;4967434;28;20248;-71
2022/05/29 02:49:52;;;;;;;3.27;2.37;;;;;;;;;;4980005;28;20227;-71
2022/05/29 02:52:19;;;;;;;5.90;2.73;;;;;;;;;;4961615;28;20240;-71
2022/05/29 02:54:46;;;;;;;5.60;2.70;;;;;;;;;;4979794;28;20321;-71
2022/05/29 02:57:21;;;;;;;3.90;2.70;;;;;;;;;;4981545;28;20318;-71
2022/05/29 02:59:49;;;;;;;4.17;2.27;;;;;;;;;;4982232;28;20366;-71
2022/05/29 03:02:19;;;;;;;3.47;2.27;;;;;;;;;;4983761;28;20224;-71
2022/05/29 03:04:58;;;;;;;3.93;2.50;;;;;;;;;;4983394;28;20223;-71
2022/05/29 03:07:26;;;;;;;4.70;2.70;;;;;;;;;;4979819;28;20326;-71
2022/05/29 03:09:53;;;;;;;5.47;2.80;;;;;;;;;;4986805;28;20227;-71
2022/05/29 03:12:40;;;;;;;6.90;2.70;;;;;;;;;;4961578;28;20217;-71
2022/05/29 03:15:07;;;;;;;3.57;2.30;;;;;;;;;;4961283;28;20237;-71
2022/05/29 03:18:07;;;;;;;3.87;2.40;;;;;;;;;;4961633;28;34531;-71
2022/05/29 03:20:38;;;;;;;2.47;2.03;;;;;;;;;;4949726;28;20232;-71
2022/05/29 03:23:32;;;;;;;6.33;2.60;;;;;;;;;;4966922;28;20267;-71
2022/05/29 03:26:00;;;;;;;6.17;2.43;;;;;;;;;;4977026;28;20238;-71
2022/05/29 03:28:27;;;;;;;4.33;2.50;;;;;;;;;;4974487;28;20329;-71
2022/05/29 03:30:54;;;;;;;3.37;1.97;;;;;;;;;;4980977;28;20236;-71
2022/05/29 03:33:20;;;;;;;4.73;2.40;;;;;;;;;;4981378;28;20231;-71
2022/05/29 03:35:53;;;;;;;3.10;2.27;;;;;;;;;;4964499;28;20239;-71
2022/05/29 03:38:20;;;;;;;4.17;2.20;;;;;;;;;;4953872;28;20335;-71
2022/05/29 03:40:47;;;;;;;3.30;2.30;;;;;;;;;;4957098;28;20251;-71
2022/05/29 03:43:13;;;;;;;3.43;2.70;;;;;;;;;;4944520;28;20231;-71
2022/05/29 03:45:40;;;;;;;4.63;2.37;;;;;;;;;;4963873;28;20303;-71
2022/05/29 03:48:07;;;;;;;5.33;2.70;;;;;;;;;;4973697;28;214081;-71
2022/05/29 03:50:37;;;;;;;5.23;2.70;;;;;;;;;;4981168;28;21517;-72
2022/05/29 03:53:03;;;;;;;3.67;2.50;;;;;;;;;;4980655;28;26029;-72
2022/05/29 03:55:30;;;;;;;5.47;2.83;;;;;;;;;;4982060;28;20230;-72
2022/05/29 03:57:57;;;;;;;3.77;2.83;;;;;;;;;;4980559;28;20232;-71
2022/05/29 04:00:24;;;;;;;4.33;2.77;;;;;;;;;;4982836;28;20803;-71
2022/05/29 04:02:50;;;;;;;4.27;2.80;;;;;;;;;;4960727;28;20226;-71
2022/05/29 04:05:21;;;;;;;4.57;3.13;;;;;;;;;;4941410;28;20243;-71
2022/05/29 04:13:20;;;;;;;6.13;3.40;;;;;;;;;;4980802;28;20235;-72
2022/05/29 04:15:46;;;;;;;7.27;3.87;;;;;;;;;;4977492;28;20224;-71
2022/05/29 04:18:15;;;;;;;5.47;3.57;;;;;;;;;;4991835;28;20258;-71
2022/05/29 04:20:42;;;;;;;4.63;3.33;;;;;;;;;;4980406;28;20232;-72
2022/05/29 04:23:09;;;;;;;5.93;3.43;;;;;;;;;;4974316;28;20236;-71
2022/05/29 04:25:35;;;;;;;7.67;3.80;;;;;;;;;;4980811;28;20215;-71
2022/05/29 04:28:02;;;;;;;5.33;3.60;;;;;;;;;;4980411;28;20227;-71
2022/05/29 04:30:29;;;;;;;4.67;3.20;;;;;;;;;;4980226;28;20255;-71
2022/05/29 04:33:01;;;;;;;5.53;2.77;;;;;;;;;;4977232;28;20228;-71
2022/05/29 04:35:49;;;;;;;6.77;3.00;;;;;;;;;;4977938;28;20984;-71
2022/05/29 04:38:16;;;;;;;6.90;3.90;;;;;;;;;;4979944;28;20719;-72
2022/05/29 04:40:43;;;;;;;7.73;4.13;;;;;;;;;;4982494;28;20250;-71
2022/05/29 04:43:10;;;;;;;8.43;4.30;;;;;;;;;;4975566;28;20692;-71
2022/05/29 04:45:37;;;;;;;5.30;3.07;;;;;;;;;;4976346;28;20784;-72
2022/05/29 04:48:04;;;;;;;3.87;3.10;;;;;;;;;;4980411;28;20231;-71
2022/05/29 04:50:31;;;;;;;2.93;2.30;;;;;;;;;;4976801;28;20232;-72
2022/05/29 04:52:58;;;;;;;3.33;2.67;;;;;;;;;;4978773;28;20238;-71
2022/05/29 04:55:24;;;;;;;5.07;2.70;;;;;;;;;;4982203;28;20220;-71
2022/05/29 04:57:51;;;;;;;4.40;2.73;;;;;;;;;;4979412;28;20231;-71
2022/05/29 05:00:18;;;;;;;5.00;3.00;;;;;;;;;;4980604;28;20305;-71
2022/05/29 05:02:45;;;;;;;5.20;3.20;;;;;;;;;;4979905;28;20232;-72
2022/05/29 05:05:12;;;;;;;4.77;3.27;;;;;;;;;;4981757;28;20243;-72
2022/05/29 05:07:39;;;;;;;7.73;4.23;;;;;;;;;;4954031;28;20656;-71
2022/05/29 05:10:06;;;;;;;6.53;3.50;;;;;;;;;;4977888;28;20262;-71
2022/05/29 05:12:33;;;;;;;5.23;3.50;;;;;;;;;;4978829;28;20236;-71
2022/05/29 05:15:00;;;;;;;6.40;3.10;;;;;;;;;;4998305;28;26697;-71
2022/05/29 05:17:26;;;;;;;4.23;3.27;;;;;;;;;;4987559;28;24032;-71
2022/05/29 05:19:53;;;;;;;4.10;3.17;;;;;;;;;;4996395;28;20258;-71
2022/05/29 05:22:19;;;;;;;5.00;3.60;;;;;;;;;;4994832;28;141574;-71
2022/05/29 05:24:46;;;;;;;5.53;3.67;;;;;;;;;;4999949;28;22869;-71
2022/05/29 05:27:13;;;;;;;5.97;3.30;;;;;;;;;;4998299;28;23193;-71
2022/05/29 05:29:41;;;;;;;5.67;3.60;;;;;;;;;;4999008;28;20243;-71
2022/05/29 05:32:08;;;;;;;5.47;3.00;;;;;;;;;;4987980;28;20228;-71
2022/05/29 05:34:35;;;;;;;6.40;3.83;;;;;;;;;;4999186;28;20244;-71
2022/05/29 05:37:02;;;;;;;6.60;3.90;;;;;;;;;;5001089;28;20222;-71
2022/05/29 05:39:29;;;;;;;5.83;4.00;;;;;;;;;;4984809;28;20230;-71
2022/05/29 05:42:13;;;;;;;5.63;4.07;;;;;;;;;;4999420;28;20215;-71
2022/05/29 05:44:39;;;;;;;6.33;4.40;;;;;;;;;;4999020;28;20577;-71
2022/05/29 05:47:07;;;;;;;6.23;3.87;;;;;;;;;;4981564;28;20234;-71
2022/05/29 05:49:35;;;;;;;7.70;4.43;;;;;;;;;;4999240;28;20254;-71
2022/05/29 05:52:02;;;;;;;9.33;4.17;;;;;;;;;;5000601;28;22987;-71
2022/05/29 05:54:30;;;;;;;9.13;4.10;;;;;;;;;;4998986;28;20247;-72
2022/05/29 05:56:57;;;;;;;6.20;4.00;;;;;;;;;;5000045;28;20718;-71
2022/05/29 05:59:24;;;;;;;7.47;4.10;;;;;;;;;;5000267;28;20226;-71
2022/05/29 06:01:51;;;;;;;9.97;4.43;;;;;;;;;;4998780;28;20257;-71
2022/05/29 06:04:17;;;;;;;8.17;4.73;;;;;;;;;;4997500;28;20245;-71
2022/05/29 06:06:44;;;;;;;6.47;4.47;;;;;;;;;;4999030;28;20231;-71
2022/05/29 06:09:11;;;;;;;7.30;4.47;;;;;;;;;;5000426;28;20239;-72
2022/05/29 06:11:39;;;;;;;7.00;4.67;;;;;;;;;;4990758;28;218232;-71
2022/05/29 06:14:06;;;;;;;9.37;4.67;;;;;;;;;;5000470;28;21907;-72
2022/05/29 06:16:33;;;;;;;7.33;4.90;;;;;;;;;;4964116;28;21677;-72
2022/05/29 06:19:00;;;;;;;6.87;4.57;;;;;;;;;;4998645;28;20336;-72
2022/05/29 06:21:27;;;;;;;7.47;4.47;;;;;;;;;;4988558;28;20234;-73
2022/05/29 06:23:54;;;;;;;8.93;4.60;;;;;;;;;;4984226;28;20239;-72
2022/05/29 06:26:21;;;;;;;5.83;4.43;;;;;;;;;;4999325;28;20713;-73
2022/05/29 06:28:47;;;;;;;8.10;3.80;;;;;;;;;;5002725;28;20730;-72
2022/05/29 06:31:14;;;;;;;8.37;4.30;;;;;;;;;;5004879;28;20411;-72
2022/05/29 06:33:44;;;;;;;6.87;4.00;;;;;;;;;;4992762;28;20235;-73
2022/05/29 06:36:15;;;;;;;9.37;4.47;;;;;;;;;;5000284;28;20239;-73
2022/05/29 06:38:42;;;;;;;7.90;4.13;;;;;;;;;;4997622;28;22490;-73
2022/05/29 06:41:10;;;;;;;8.47;4.50;;;;;;;;;;5005891;28;20562;-72
2022/05/29 06:43:36;;;;;;;7.83;4.60;;;;;;;;;;5003745;28;20309;-72
2022/05/29 06:46:06;;;;;;;8.87;4.60;;;;;;;;;;4997629;28;20317;-73
2022/05/29 06:48:35;;;;;;;9.17;4.50;;;;;;;;;;4991328;28;20282;-73
2022/05/29 06:51:08;;;;;;;7.27;4.83;;;;;;;;;;4997702;28;31106;-73
2022/05/29 06:53:55;;;;;;;5.13;3.40;;;;;;;;;;4997128;28;20273;-71
2022/05/29 06:56:22;;;;;;;10.13;3.37;;;;;;;;;;4993125;28;20947;-72
2022/05/29 06:59:07;;;;;;;6.60;3.60;;;;;;;;;;4998148;28;20223;-73
2022/05/29 07:06:59;;;;;;;7.73;3.83;;;;;;;;;;4988791;28;20246;-73
2022/05/29 07:07:22;;;;;;;8.07;3.50;;;;;;;;;;4994284;28;20231;-72
2022/05/29 07:09:48;;;;;;;7.23;3.27;;;;;;;;;;4978118;28;217187;-72
2022/05/29 07:12:17;;;;;;;8.13;3.53;;;;;;;;;;4971422;28;20750;-73
2022/05/29 07:14:48;;;;;;;4.47;2.70;;;;;;;;;;4975688;28;29641;-72
2022/05/29 07:17:15;;;;;;;8.60;3.23;;;;;;;;;;4964738;28;20703;-73
2022/05/29 07:19:42;;;;;;;3.93;2.67;;;;;;;;;;4991708;28;20235;-72
2022/05/29 07:22:09;;;;;;;7.10;3.00;;;;;;;;;;4992677;28;20254;-72
2022/05/29 07:24:36;;;;;;;6.33;3.37;;;;;;;;;;4981803;28;20864;-72
2022/05/29 07:27:03;;;;;;;4.43;2.60;;;;;;;;;;5001003;28;20342;-73
2022/05/29 07:29:30;;;;;;;5.27;2.57;;;;;;;;;;5000209;28;23131;-73
2022/05/29 07:31:57;;;;;;;6.93;2.20;;;;;;;;;;4995678;28;20306;-73
2022/05/29 07:34:24;;;;;;;3.87;2.07;;;;;;;;;;4996443;28;20234;-74
2022/05/29 07:36:51;;;;;;;6.23;2.50;;;;;;;;;;4999339;28;20233;-74
2022/05/29 07:39:19;;;;;;;4.10;2.13;;;;;;;;;;4988369;28;20732;-72
2022/05/29 07:44:31;;;;;;;2.80;1.90;;;;;;;;;;4994763;28;20231;-73
2022/05/29 07:46:57;;;;;;;4.63;1.90;;;;;;;;;;5002348;28;20230;-72
2022/05/29 07:49:24;;;;;;;5.80;2.10;;;;;;;;;;4993216;28;22170;-72
2022/05/29 07:51:51;;;;;;;3.03;2.00;;;;;;;;;;4990543;28;20238;-71
2022/05/29 07:54:20;;;;;;;4.57;2.03;;;;;;;;;;4994193;28;20223;-71
2022/05/29 07:56:47;;;;;;;4.83;2.17;;;;;;;;;;4986909;28;219889;-72
2022/05/29 07:59:16;;;;;;;3.87;2.10;;;;;;;;;;5002865;28;20219;-71
2022/05/29 08:01:43;;;;;;;5.17;2.30;;;;;;;;;;4986269;28;230230;-71
2022/05/29 08:04:10;;;;;;;7.13;2.37;;;;;;;;;;4993408;28;20281;-71
2022/05/29 08:06:37;;;;;;;4.07;2.13;;;;;;;;;;4985803;28;224802;-71
2022/05/29 08:09:06;;;;;;;4.13;2.20;;;;;;;;;;4992827;28;20709;-72
2022/05/29 08:11:33;;;;;;;6.10;2.40;;;;;;;;;;4982045;28;20234;-72
2022/05/29 08:14:04;;;;;;;5.60;2.53;;;;;;;;;;4980005;28;22364;-72
2022/05/29 08:16:30;;;;;;;4.27;2.40;;;;;;;;;;4980241;28;20232;-72
2022/05/29 08:18:57;;;;;;;4.37;2.00;;;;;;;;;;4948737;28;20232;-72
2022/05/29 08:21:24;;;;;;;5.80;2.20;;;;;;;;;;4962518;28;20247;-72
2022/05/29 08:32:27;;;;;;;5.07;2.40;;;;;;;;;;4980216;28;20236;-72
2022/05/29 08:34:54;;;;;;;4.83;2.30;;;;;;;;;;4979933;28;20695;-72
2022/05/29 08:37:21;;;;;;;5.67;2.60;;;;;;;;;;4980932;28;20238;-72
2022/05/29 08:39:48;;;;;;;5.87;2.37;;;;;;;;;;4973229;28;20232;-72
2022/05/29 08:42:16;;;;;;;4.47;1.97;;;;;;;;;;4962026;28;20224;-72
2022/05/29 08:44:47;;;;;;;4.77;2.27;;;;;;;;;;4958855;28;26020;-72
2022/05/29 08:47:20;;;;;;;4.97;3.00;;;;;;;;;;4973541;28;20219;-72
2022/05/29 08:50:04;;;;;;;7.83;2.30;;;;;;;;;;4978973;28;20731;-72
2022/05/29 08:52:51;;;;;;;2.90;1.87;;;;;;;;;;4981878;28;20234;-73
2022/05/29 08:55:26;;;;;;;5.83;1.80;;;;;;;;;;4979481;28;20709;-72
2022/05/29 08:57:59;;;;;;;6.43;2.17;;;;;;;;;;4963650;28;20235;-72
2022/05/29 09:00:46;;;;;;;3.13;1.57;;;;;;;;;;4975163;28;20235;-72
2022/05/29 09:03:16;;;;;;;3.13;1.70;;;;;;;;;;4976391;28;20228;-72
2022/05/29 09:05:44;;;;;;;2.53;1.60;;;;;;;;;;4974678;28;20247;-73
2022/05/29 09:08:12;;;;;;;4.67;1.80;;;;;;;;;;4961832;28;20262;-72
2022/05/29 09:10:40;;;;;;;4.37;2.33;;;;;;;;;;4995027;28;20319;-72
2022/05/29 09:13:10;;;;;;;5.67;2.20;;;;;;;;;;4994087;28;20594;-72
2022/05/29 09:15:38;;;;;;;3.10;1.80;;;;;;;;;;4999067;28;20227;-72
2022/05/29 09:18:07;;;;;;;2.93;1.93;;;;;;;;;;4997744;28;20690;-72
2022/05/29 09:20:34;;;;;;;3.70;1.87;;;;;;;;;;4997323;28;20690;-72
2022/05/29 09:23:01;;;;;;;4.70;1.70;;;;;;;;;;5000202;28;20762;-72
2022/05/29 09:25:35;;;;;;;5.20;2.07;;;;;;;;;;4979395;28;25777;-71
2022/05/29 09:28:09;;;;;;;3.13;1.53;;;;;;;;;;4969386;28;25425;-71
2022/05/29 09:30:38;;;;;;;4.27;1.90;;;;;;;;;;4992356;28;20261;-70
2022/05/29 09:33:07;;;;;;;5.40;1.80;;;;;;;;;;4996129;28;20239;-69
2022/05/29 09:35:52;;;;;;;3.70;1.80;;;;;;;;;;4997866;28;20238;-70
2022/05/29 09:38:19;;;;;;;3.43;1.90;;;;;;;;;;4998412;28;20219;-60
2022/05/29 09:41:04;;;;;;;4.13;1.77;;;;;;;;;;4999273;28;20223;-60
2022/05/29 09:43:30;;;;;;;3.33;1.40;;;;;;;;;;4999548;28;20231;-60
2022/05/29 09:46:20;;;;;;;1.90;1.37;;;;;;;;;;4972470;28;20238;-60
2022/05/29 09:51:58;;;;;;;2.37;1.70;;;;;;;;;;5013547;28;21114;-60
2022/05/29 09:54:38;;;;;;;4.17;1.67;;;;;;;;;;5010272;28;20223;-60
2022/05/29 09:57:20;;;;;;;6.67;1.70;;;;;;;;;;4984164;28;20245;-60
2022/05/29 09:59:47;;;;;;;2.90;1.70;;;;;;;;;;5002739;28;20690;-60
2022/05/29 10:02:27;;;;;;;3.30;1.70;;;;;;;;;;5006249;28;20234;-60
2022/05/29 10:04:55;;;;;;;2.93;1.83;;;;;;;;;;5012164;28;20235;-60
2022/05/29 10:07:41;;;;;;;2.70;1.30;;;;;;;;;;5014109;28;20245;-60
2022/05/29 10:10:11;;;;;;;2.10;1.17;;;;;;;;;;4992618;28;20289;-60
2022/05/29 10:12:39;;;;;;;2.13;1.40;;;;;;;;;;5003167;28;20227;-60
2022/05/29 10:15:24;;;;;;;3.77;1.40;;;;;;;;;;5016591;28;20242;-60
2022/05/29 10:18:12;;;;;;;5.23;1.80;;;;;;;;;;5008901;28;20284;-60
2022/05/29 10:20:42;;;;;;;3.00;1.33;;;;;;;;;;5002483;28;21298;-60
2022/05/29 10:23:12;;;;;;;2.20;1.20;;;;;;;;;;5001043;28;20224;-59
2022/05/29 10:25:39;;;;;;;4.00;1.60;;;;;;;;;;5019007;28;20222;-60
2022/05/29 10:28:10;;;;;;;3.23;1.60;;;;;;;;;;5018157;28;20227;-60
2022/05/29 10:30:56;;;;;;;4.13;1.93;;;;;;;;;;4982581;28;20298;-60
2022/05/29 10:33:23;;;;;;;2.77;1.60;;;;;;;;;;4999219;28;20238;-59
2022/05/29 10:35:50;;;;;;;3.63;1.83;;;;;;;;;;5002290;28;20246;-60
2022/05/29 10:38:28;;;;;;;2.77;2.00;;;;;;;;;;5004387;28;20234;-60
2022/05/29 10:40:58;;;;;;;6.63;1.97;;;;;;;;;;5000812;28;20231;-59
2022/05/29 10:43:38;;;;;;;6.13;2.10;;;;;;;;;;5001141;28;20227;-60
2022/05/29 10:46:05;;;;;;;4.87;1.67;;;;;;;;;;5001804;28;20725;-60
2022/05/29 10:48:37;;;;;;;4.30;1.70;;;;;;;;;;5001557;28;20650;-61
2022/05/29 10:51:22;;;;;;;2.80;1.50;;;;;;;;;;5001621;28;20239;-60
2022/05/29 10:53:54;;;;;;;3.47;1.60;;;;;;;;;;5002250;28;20243;-60
2022/05/29 10:56:20;;;;;;;3.60;1.50;;;;;;;;;;4960992;28;20233;-60
2022/05/29 10:58:50;;;;;;;2.23;1.23;;;;;;;;;;4962914;28;20236;-59
2022/05/29 11:04:19;;;;;;;2.03;1.10;;;;;;;;;;4984805;28;20248;-60
2022/05/29 11:06:50;;;;;;;2.37;1.20;;;;;;;;;;4986992;28;20231;-60
2022/05/29 11:09:33;;;;;;;1.70;1.20;;;;;;;;;;5001914;28;20231;-60
2022/05/29 11:12:05;;;;;;;1.73;0.90;;;;;;;;;;5009282;28;20312;-60
2022/05/29 11:14:41;;;;;;;1.43;0.73;;;;;;;;;;5012252;28;20592;-61
2022/05/29 11:17:27;;;;;;;3.03;1.17;;;;;;;;;;4990501;28;27973;-60
2022/05/29 11:20:00;;;;;;;3.40;1.10;;;;;;;;;;5000386;28;20237;-60
2022/05/29 11:22:31;;;;;;;10.27;1.40;;;;;;;;;;4989712;28;20572;-59
2022/05/29 11:25:16;;;;;;;9.70;1.60;;;;;;;;;;4986956;28;20300;-59
2022/05/29 11:27:49;;;;;;;5.90;1.43;;;;;;;;;;4988024;28;21173;-59
2022/05/29 11:30:25;;;;;;;2.30;1.27;;;;;;;;;;4994160;28;20697;-60
2022/05/29 11:33:10;;;;;;;3.23;1.20;;;;;;;;;;4993513;28;20654;-60
2022/05/29 11:35:43;;;;;;;3.13;1.20;;;;;;;;;;4996663;28;20645;-59
2022/05/29 11:38:22;;;;;;;3.90;1.97;;;;;;;;;;5000118;28;20230;-59
2022/05/29 11:40:51;;;;;;;3.70;1.70;;;;;;;;;;4998970;28;20223;-59
2022/05/29 11:43:33;;;;;;;6.03;1.60;;;;;;;;;;4999773;28;20234;-60
2022/05/29 11:52:25;;;;;;;4.10;2.40;;;;;;;;;;4988191;28;20226;-59
2022/05/29 11:55:12;;;;;;;3.70;2.10;;;;;;;;;;4989769;28;20293;-59
2022/05/29 11:57:56;;;;;;;4.07;1.93;;;;;;;;;;4985880;28;20239;-59
2022/05/29 12:00:37;;;;;;;1.73;1.43;;;;;;;;;;4985979;28;20291;-59
2022/05/29 12:03:24;;;;;;;7.03;2.23;;;;;;;;;;4977958;28;24138;-59
2022/05/29 12:06:06;;;;;;;4.47;2.30;;;;;;;;;;4959414;28;20709;-59
2022/05/29 12:08:43;;;;;;;3.80;2.60;;;;;;;;;;4977511;28;20239;-60
2022/05/29 12:11:30;;;;;;;5.07;2.37;;;;;;;;;;5011992;28;20243;-59
2022/05/29 12:13:57;;;;;;;5.47;2.50;;;;;;;;;;5002111;28;20226;-68
2022/05/29 12:16:27;;;;;;;6.73;3.20;;;;;;;;;;5004822;28;20234;-69
2022/05/29 12:18:55;;;;;;;7.27;3.03;;;;;;;;;;5000960;28;20231;-69
2022/05/29 12:21:47;;;;;;;5.97;3.00;;;;;;;;;;4983275;28;20226;-70
2022/05/29 12:24:21;;;;;;;9.13;4.00;;;;;;;;;;4983058;28;20687;-70
2022/05/29 12:26:55;;;;;;;6.03;2.50;;;;;;;;;;4975337;28;20279;-71
2022/05/29 12:29:26;;;;;;;3.90;2.10;;;;;;;;;;4974509;28;21119;-71
2022/05/29 12:32:17;;;;;;;2.33;1.90;;;;;;;;;;4955761;28;20317;-71
2022/05/29 12:34:58;;;;;;;4.40;2.17;;;;;;;;;;4969267;28;23139;-68
2022/05/29 12:37:30;;;;;;;2.97;2.10;;;;;;;;;;4986833;28;20938;-68
2022/05/29 12:40:04;;;;;;;3.67;1.83;;;;;;;;;;4990245;28;20223;-68
2022/05/29 12:42:43;;;;;;;2.40;1.70;;;;;;;;;;4989362;28;20949;-67
2022/05/29 12:45:23;;;;;;;2.97;1.97;;;;;;;;;;4978345;28;20285;-68
2022/05/29 12:48:17;;;;;;;3.63;1.67;;;;;;;;;;4978861;28;32321;-65
2022/05/29 12:50:44;;;;;;;2.63;2.30;;;;;;;;;;4993406;28;22521;-70
2022/05/29 12:53:15;;;;;;;3.57;2.03;;;;;;;;;;4996525;28;20872;-67
2022/05/29 12:55:48;;;;;;;8.43;2.23;;;;;;;;;;4991427;28;20226;-66
2022/05/29 12:58:18;;;;;;;3.93;2.30;;;;;;;;;;4970775;28;21652;-68
2022/05/29 13:01:01;;;;;;;2.90;2.27;;;;;;;;;;4995082;28;25655;-67
2022/05/29 13:03:47;;;;;;;5.03;2.77;;;;;;;;;;4995111;28;20234;-68
2022/05/29 13:06:20;;;;;;;3.60;3.00;;;;;;;;;;4983843;28;20223;-66
2022/05/29 13:08:50;;;;;;;4.13;2.63;;;;;;;;;;4993012;28;20292;-68
2022/05/29 13:11:18;;;;;;;3.87;2.90;;;;;;;;;;5007145;28;20384;-67
2022/05/29 13:13:46;;;;;;;3.37;2.23;;;;;;;;;;5003485;28;20227;-66
2022/05/29 13:16:20;;;;;;;2.60;1.90;;;;;;;;;;4998490;28;20317;-66
2022/05/29 13:22:01;;;;;;;2.93;1.40;;;;;;;;;;5005435;28;20276;-67
2022/05/29 13:24:28;;;;;;;3.13;1.67;;;;;;;;;;4997156;28;21481;-67
2022/05/29 13:27:13;;;;;;;2.37;1.73;;;;;;;;;;5001027;28;20227;-68
2022/05/29 13:29:45;;;;;;;3.60;1.80;;;;;;;;;;4995866;28;20327;-67
2022/05/29 13:32:14;;;;;;;2.17;1.90;;;;;;;;;;4992667;28;20372;-65
2022/05/29 13:34:41;;;;;;;3.40;1.80;;;;;;;;;;4997227;28;20812;-67
2022/05/29 13:37:09;;;;;;;2.57;1.80;;;;;;;;;;4988552;28;20851;-67
2022/05/29 13:39:51;;;;;;;4.07;1.90;;;;;;;;;;4997805;28;20222;-66
2022/05/29 13:42:22;;;;;;;1.83;1.30;;;;;;;;;;4984397;28;20214;-68
2022/05/29 13:44:49;;;;;;;3.60;1.37;;;;;;;;;;4973627;28;20247;-67
2022/05/29 13:47:19;;;;;;;4.00;1.80;;;;;;;;;;4998221;28;24803;-67
2022/05/29 13:49:48;;;;;;;3.40;1.63;;;;;;;;;;5000819;28;20227;-63
2022/05/29 13:52:16;;;;;;;2.60;1.80;;;;;;;;;;4996932;28;20235;-64
2022/05/29 13:54:45;;;;;;;4.00;2.20;;;;;;;;;;4998472;28;20334;-63
2022/05/29 14:03:57;;;;;;;2.67;2.03;;;;;;;;;;4980126;28;20283;-64
2022/05/29 14:05:49;;;;;;;2.93;1.77;;;;;;;;;;4985690;28;20258;-63
2022/05/29 14:08:19;;;;;;;2.73;2.20;;;;;;;;;;4994214;28;20227;-63
2022/05/29 14:10:50;;;;;;;3.20;2.10;;;;;;;;;;4993557;28;20242;-63
2022/05/29 14:13:35;;;;;;;3.67;1.93;;;;;;;;;;5002395;28;20231;-63
2022/05/29 14:16:13;;;;;;;3.43;2.40;;;;;;;;;;4996716;28;20231;-63
2022/05/29 14:18:47;;;;;;;2.30;2.03;;;;;;;;;;4995437;28;20329;-63
2022/05/29 14:21:35;;;;;;;5.20;2.10;;;;;;;;;;4991700;28;20219;-63
2022/05/29 14:24:21;;;;;;;5.20;2.60;;;;;;;;;;4997711;28;20304;-64
2022/05/29 14:26:58;;;;;;;3.00;2.70;;;;;;;;;;4996443;28;20295;-63
2022/05/29 14:29:28;;;;;;;3.10;2.40;;;;;;;;;;4994318;28;20309;-63
2022/05/29 14:32:06;;;;;;;3.93;2.33;;;;;;;;;;5001984;28;20231;-66
2022/05/29 14:34:36;;;;;;;3.40;2.57;;;;;;;;;;4992774;28;21633;-64
2022/05/29 14:37:25;;;;;;;3.57;2.10;;;;;;;;;;4981976;28;20838;-64
2022/05/29 14:40:01;;;;;;;5.30;2.67;;;;;;;;;;5004934;28;20223;-65
2022/05/29 14:42:29;;;;;;;4.37;2.10;;;;;;;;;;5002771;28;27355;-63
2022/05/29 14:44:59;;;;;;;4.07;2.10;;;;;;;;;;5001401;28;20238;-64
2022/05/29 14:47:31;;;;;;;1.87;1.30;;;;;;;;;;4998851;28;20322;-65
2022/05/29 14:50:24;;;;;;;2.07;1.30;;;;;;;;;;5004905;28;20220;-63
2022/05/29 14:53:10;;;;;;;2.63;1.53;;;;;;;;;;4983678;28;29850;-63
2022/05/29 14:55:47;;;;;;;14.37;6.93;;;;;;;;;;4999863;28;20865;-63
2022/05/29 14:58:32;;;;;;;11.30;7.23;;;;;;;;;;4974358;28;20239;-63
2022/05/29 15:01:23;;;;;;;14.67;8.23;;;;;;;;;;5003732;28;20694;-65
2022/05/29 15:04:08;;;;;;;3.87;3.07;;;;;;;;;;4996656;28;20329;-65
2022/05/29 15:10:30;;;;;;;5.90;4.47;;;;;;;;;;5004130;28;20944;-64
2022/05/29 15:12:32;;;;;;;15.73;9.27;;;;;;;;;;5002460;28;20238;-64
2022/05/29 15:15:13;;;;;;;4.20;3.43;;;;;;;;;;5002636;28;21077;-64
2022/05/29 15:17:39;;;;;;;4.00;2.60;;;;;;;;;;5000650;28;20238;-64
2022/05/29 15:26:02;;;;;;;9.13;5.07;;;;;;;;;;4986552;28;20231;-64
2022/05/29 15:28:29;;;;;;;13.63;8.53;;;;;;;;;;4986898;28;20247;-64
2022/05/29 15:30:56;;;;;;;14.50;10.20;;;;;;;;;;4998505;28;20223;-65
2022/05/29 15:33:26;;;;;;;12.40;9.27;;;;;;;;;;4987731;28;20382;-64
2022/05/29 15:35:57;;;;;;;8.57;6.10;;;;;;;;;;4996650;28;20231;-64
2022/05/29 15:38:32;;;;;;;3.87;3.37;;;;;;;;;;4967321;28;23331;-64
2022/05/29 15:41:00;;;;;;;6.87;5.30;;;;;;;;;;4995869;28;20309;-65
2022/05/29 15:43:45;;;;;;;11.20;7.70;;;;;;;;;;5000480;28;20341;-64
2022/05/29 15:46:13;;;;;;;8.23;6.03;;;;;;;;;;4999170;28;20308;-64
2022/05/29 15:48:49;;;;;;;6.77;5.37;;;;;;;;;;5003404;28;27916;-64
2022/05/29 15:51:18;;;;;;;3.77;2.87;;;;;;;;;;4999930;28;20241;-63
2022/05/29 15:53:46;;;;;;;4.80;3.27;;;;;;;;;;4997934;28;21742;-63
2022/05/29 15:56:26;;;;;;;3.83;3.37;;;;;;;;;;5000251;28;20227;-64
2022/05/29 15:59:30;;;;;;;3.10;2.80;;;;;;;;;;4985045;28;20260;-65
2022/05/29 16:02:16;;;;;;;4.70;3.00;;;;;;;;;;5006468;28;20716;-64
2022/05/29 16:04:43;;;;;;;4.33;3.30;;;;;;;;;;4998536;28;20682;-64
2022/05/29 16:07:11;;;;;;;2.97;2.37;;;;;;;;;;5002657;28;20332;-64